createdAt,value
2019-03-19T00:02:00.991Z,92.70
2019-03-19T00:04:27.752Z,93.10
2019-03-19T00:06:54.396Z,92.60
2019-03-19T00:09:21.072Z,92.50
2019-03-19T00:11:47.713Z,92.40
2019-03-19T00:14:14.544Z,92.20
2019-03-19T00:16:41.221Z,92.40
2019-03-19T00:19:08.022Z,93.00
2019-03-19T00:21:34.785Z,93.00
2019-03-19T00:24:01.601Z,93.10
2019-03-19T00:26:28.316Z,93.00
2019-03-19T00:28:55.118Z,92.80
2019-03-19T00:31:22.299Z,92.80
2019-03-19T00:33:49.021Z,92.90
2019-03-19T00:36:17.524Z,93.40
2019-03-19T00:38:44.380Z,93.40
2019-03-19T00:41:11.083Z,93.80
2019-03-19T00:43:37.738Z,93.50
2019-03-19T00:46:04.406Z,93.10
2019-03-19T00:48:31.036Z,92.80
2019-03-19T00:50:57.713Z,93.60
2019-03-19T00:53:24.371Z,93.50
2019-03-19T00:55:51.135Z,94.00
2019-03-19T00:58:17.801Z,93.80
2019-03-19T01:00:44.494Z,94.50
2019-03-19T01:03:11.192Z,94.30
2019-03-19T01:05:37.898Z,94.50
2019-03-19T01:08:04.533Z,94.20
2019-03-19T01:10:31.187Z,94.60
2019-03-19T01:12:58.001Z,94.50
2019-03-19T01:15:24.670Z,94.30
2019-03-19T01:17:51.362Z,93.80
2019-03-19T01:20:18.015Z,93.60
2019-03-19T01:22:44.731Z,93.50
2019-03-19T01:25:11.447Z,93.00
2019-03-19T01:27:38.118Z,93.50
2019-03-19T01:30:07.817Z,93.20
2019-03-19T01:32:34.531Z,93.10
2019-03-19T01:35:01.344Z,93.20
2019-03-19T01:37:27.982Z,93.00
2019-03-19T01:39:54.773Z,93.20
2019-03-19T01:42:21.456Z,93.40
2019-03-19T01:44:48.234Z,93.30
2019-03-19T01:47:14.860Z,93.10
2019-03-19T01:49:41.549Z,93.40
2019-03-19T01:52:08.294Z,93.70
2019-03-19T01:54:35.091Z,93.90
2019-03-19T01:57:01.722Z,94.60
2019-03-19T01:59:28.356Z,94.60
2019-03-19T02:01:56.021Z,94.50
2019-03-19T02:04:22.837Z,94.10
2019-03-19T02:09:45.150Z,94.70
2019-03-19T02:12:11.904Z,94.00
2019-03-19T02:14:38.649Z,94.50
2019-03-19T02:17:05.321Z,94.30
2019-03-19T02:19:31.964Z,93.90
2019-03-19T02:21:58.740Z,94.60
2019-03-19T02:24:25.406Z,95.10
2019-03-19T02:26:52.092Z,94.40
2019-03-19T02:29:18.742Z,93.90
2019-03-19T02:31:45.413Z,94.10
2019-03-19T02:34:12.058Z,93.90
2019-03-19T02:36:38.705Z,94.30
2019-03-19T02:39:05.990Z,94.60
2019-03-19T02:41:32.629Z,95.20
2019-03-19T02:43:59.319Z,95.10
2019-03-19T02:46:25.937Z,95.80
2019-03-19T02:48:52.620Z,94.90
2019-03-19T02:51:19.258Z,95.00
2019-03-19T02:53:45.922Z,95.10
2019-03-19T02:56:12.571Z,94.90
2019-03-19T02:58:39.201Z,94.50
2019-03-19T03:01:05.979Z,94.30
2019-03-19T03:03:32.622Z,94.30
2019-03-19T03:05:59.390Z,95.10
2019-03-19T03:08:26.019Z,95.10
2019-03-19T03:10:52.727Z,94.70
2019-03-19T03:13:19.361Z,94.60
2019-03-19T03:15:45.997Z,94.70
2019-03-19T03:18:12.676Z,94.90
2019-03-19T03:20:39.349Z,96.20
2019-03-19T03:23:06.066Z,96.10
2019-03-19T03:25:32.728Z,95.70
2019-03-19T03:27:59.411Z,95.40
2019-03-19T03:30:26.055Z,96.60
2019-03-19T03:32:52.737Z,96.40
2019-03-19T03:35:19.376Z,95.50
2019-03-19T03:37:46.138Z,95.00
2019-03-19T03:40:14.084Z,94.50
2019-03-19T03:42:43.066Z,94.60
2019-03-19T03:45:12.109Z,94.60
2019-03-19T03:47:38.741Z,94.40
2019-03-19T03:50:09.001Z,94.20
2019-03-19T03:52:35.645Z,95.40
2019-03-19T03:55:02.521Z,95.90
2019-03-19T03:57:29.144Z,95.80
2019-03-19T03:59:55.833Z,95.80
2019-03-19T04:02:22.487Z,95.20
2019-03-19T04:04:49.147Z,95.00
2019-03-19T04:07:15.792Z,95.10
2019-03-19T04:09:42.461Z,95.10
2019-03-19T04:12:09.147Z,94.50
2019-03-19T04:14:35.807Z,94.70
2019-03-19T04:17:02.464Z,95.10
2019-03-19T04:19:29.150Z,95.10
2019-03-19T04:21:56.047Z,95.30
2019-03-19T04:24:22.733Z,95.20
2019-03-19T04:26:49.387Z,95.10
2019-03-19T04:29:16.040Z,95.00
2019-03-19T04:31:42.697Z,95.10
2019-03-19T04:34:09.358Z,94.90
2019-03-19T04:36:36.011Z,94.90
2019-03-19T04:39:04.952Z,95.00
2019-03-19T04:41:31.631Z,95.00
2019-03-19T04:43:58.268Z,95.80
2019-03-19T04:46:24.950Z,95.40
2019-03-19T04:48:51.602Z,95.60
2019-03-19T04:51:18.260Z,95.40
2019-03-19T04:53:44.909Z,96.40
2019-03-19T04:56:11.582Z,96.70
2019-03-19T04:58:38.246Z,96.60
2019-03-19T05:01:05.259Z,96.50
2019-03-19T05:03:31.889Z,96.30
2019-03-19T05:05:59.623Z,96.40
2019-03-19T05:08:26.496Z,96.30
2019-03-19T05:10:53.177Z,95.90
2019-03-19T05:13:19.886Z,95.80
2019-03-19T05:15:46.525Z,96.10
2019-03-19T05:18:13.188Z,96.40
2019-03-19T05:20:40.123Z,96.40
2019-03-19T05:23:06.898Z,96.30
2019-03-19T05:25:33.703Z,97.00
2019-03-19T05:28:00.365Z,96.30
2019-03-19T05:30:27.070Z,96.50
2019-03-19T05:32:53.666Z,96.60
2019-03-19T05:35:20.365Z,96.20
2019-03-19T05:37:47.020Z,96.30
2019-03-19T05:40:14.288Z,96.20
2019-03-19T05:42:42.782Z,95.80
2019-03-19T05:45:10.835Z,96.10
2019-03-19T05:47:40.308Z,96.00
2019-03-19T05:50:08.996Z,96.10
2019-03-19T05:52:35.658Z,96.50
2019-03-19T05:55:02.599Z,96.90
2019-03-19T05:57:29.273Z,96.90
2019-03-19T05:59:55.929Z,96.80
2019-03-19T06:02:22.615Z,96.80
2019-03-19T06:04:49.319Z,96.80
2019-03-19T06:07:15.968Z,96.90
2019-03-19T06:09:42.630Z,97.20
2019-03-19T06:12:09.358Z,97.00
2019-03-19T06:14:36.021Z,96.60
2019-03-19T06:17:02.712Z,97.40
2019-03-19T06:19:29.363Z,96.60
2019-03-19T06:21:56.855Z,96.50
2019-03-19T06:24:23.645Z,95.90
2019-03-19T06:26:50.268Z,96.00
2019-03-19T06:29:16.954Z,96.20
2019-03-19T06:31:43.585Z,96.10
2019-03-19T06:34:10.272Z,95.80
2019-03-19T06:36:36.898Z,96.00
2019-03-19T06:39:06.073Z,96.10
2019-03-19T06:41:32.697Z,95.50
2019-03-19T06:43:59.395Z,95.80
2019-03-19T06:46:26.041Z,96.00
2019-03-19T06:48:52.711Z,95.50
2019-03-19T06:51:19.382Z,96.60
2019-03-19T06:53:46.050Z,96.90
2019-03-19T06:56:14.783Z,96.70
2019-03-19T06:58:41.158Z,96.30
2019-03-19T07:01:07.823Z,96.70
2019-03-19T07:03:34.470Z,97.20
2019-03-19T07:06:01.149Z,96.50
2019-03-19T07:08:27.781Z,96.10
2019-03-19T07:10:54.501Z,96.30
2019-03-19T07:13:21.230Z,95.70
2019-03-19T07:15:47.925Z,95.40
2019-03-19T07:18:14.649Z,95.20
2019-03-19T07:20:41.343Z,95.20
2019-03-19T07:23:08.027Z,95.20
2019-03-19T07:25:34.688Z,94.50
2019-03-19T07:28:01.376Z,95.00
2019-03-19T07:30:28.021Z,94.10
2019-03-19T07:32:54.695Z,94.30
2019-03-19T07:35:21.318Z,94.20
2019-03-19T07:37:47.995Z,94.30
2019-03-19T07:40:15.432Z,94.40
2019-03-19T07:42:42.102Z,93.30
2019-03-19T07:45:12.345Z,93.60
2019-03-19T07:47:38.992Z,93.50
2019-03-19T07:50:11.597Z,93.00
2019-03-19T07:52:38.337Z,93.40
2019-03-19T07:55:05.024Z,93.70
2019-03-19T07:57:31.668Z,94.00
2019-03-19T07:59:58.386Z,93.60
2019-03-19T08:02:25.039Z,93.60
2019-03-19T08:04:51.689Z,93.30
2019-03-19T08:07:18.317Z,93.60
2019-03-19T08:09:45.004Z,93.40
2019-03-19T08:12:11.670Z,94.00
2019-03-19T08:14:38.367Z,94.00
2019-03-19T08:17:04.988Z,92.70
2019-03-19T08:19:31.630Z,92.60
2019-03-19T08:21:58.337Z,92.80
2019-03-19T08:24:25.000Z,92.30
2019-03-19T08:26:51.687Z,92.60
2019-03-19T08:29:18.473Z,93.00
2019-03-19T08:31:45.239Z,91.70
2019-03-19T08:34:11.875Z,92.00
2019-03-19T08:36:38.536Z,91.70
2019-03-19T08:39:05.582Z,90.60
2019-03-19T08:41:32.267Z,88.70
2019-03-19T08:43:58.899Z,90.40
2019-03-19T08:46:25.699Z,90.00
2019-03-19T08:48:52.318Z,87.90
2019-03-19T08:51:18.954Z,89.80
2019-03-19T08:53:45.644Z,90.00
2019-03-19T08:56:12.336Z,89.00
2019-03-19T08:58:39.061Z,90.40
2019-03-19T09:01:05.698Z,88.50
2019-03-19T09:03:32.487Z,90.00
2019-03-19T09:06:04.685Z,90.00
2019-03-19T09:08:31.348Z,89.80
2019-03-19T09:10:58.026Z,90.00
2019-03-19T09:13:24.731Z,90.50
2019-03-19T09:15:51.401Z,90.00
2019-03-19T09:18:18.031Z,91.10
2019-03-19T09:20:44.739Z,91.10
2019-03-19T09:23:11.484Z,90.30
2019-03-19T09:25:38.238Z,89.30
2019-03-19T09:28:04.860Z,88.20
2019-03-19T09:30:31.629Z,82.70
2019-03-19T09:32:58.245Z,82.80
2019-03-19T09:35:26.303Z,84.70
2019-03-19T09:37:58.442Z,85.60
2019-03-19T09:40:21.716Z,86.60
2019-03-19T09:42:48.347Z,86.90
2019-03-19T09:45:15.712Z,87.50
2019-03-19T09:47:42.341Z,86.60
2019-03-19T09:50:14.797Z,86.80
2019-03-19T09:52:41.444Z,87.00
2019-03-19T09:55:10.339Z,84.80
2019-03-19T09:57:36.960Z,83.80
2019-03-19T10:00:07.190Z,79.30
2019-03-19T10:02:33.853Z,81.00
2019-03-19T10:05:00.539Z,82.10
2019-03-19T10:07:27.158Z,85.00
2019-03-19T10:09:53.782Z,86.10
2019-03-19T10:12:20.496Z,84.90
2019-03-19T10:14:47.161Z,84.20
2019-03-19T10:17:13.815Z,83.90
2019-03-19T10:19:40.478Z,83.20
2019-03-19T10:22:07.195Z,77.10
2019-03-19T10:24:33.847Z,80.90
2019-03-19T10:27:00.581Z,75.80
2019-03-19T10:29:37.571Z,73.50
2019-03-19T10:31:55.707Z,79.20
2019-03-19T10:34:22.352Z,79.00
2019-03-19T10:36:48.985Z,80.80
2019-03-19T10:39:15.661Z,80.50
2019-03-19T10:41:42.296Z,80.70
2019-03-19T10:44:08.990Z,80.90
2019-03-19T10:46:35.605Z,80.10
2019-03-19T10:49:02.295Z,79.00
2019-03-19T10:51:28.918Z,79.40
2019-03-19T10:53:55.605Z,79.00
2019-03-19T10:56:22.230Z,77.70
2019-03-19T10:58:48.919Z,77.10
2019-03-19T11:01:15.552Z,73.70
2019-03-19T11:03:42.235Z,74.90
2019-03-19T11:06:08.861Z,76.30
2019-03-19T11:08:35.541Z,79.00
2019-03-19T11:11:03.582Z,78.70
2019-03-19T11:13:30.392Z,78.70
2019-03-19T11:15:57.078Z,79.40
2019-03-19T11:18:23.816Z,80.90
2019-03-19T11:20:50.488Z,79.00
2019-03-19T11:23:17.180Z,79.70
2019-03-19T11:25:53.940Z,79.10
2019-03-19T11:28:13.881Z,79.00
2019-03-19T11:30:40.663Z,75.90
2019-03-19T11:33:07.402Z,73.70
2019-03-19T11:35:34.087Z,72.60
2019-03-19T11:38:00.753Z,70.90
2019-03-19T11:40:27.546Z,71.40
2019-03-19T11:42:54.171Z,71.00
2019-03-19T11:45:24.574Z,72.60
2019-03-19T11:47:51.220Z,74.50
2019-03-19T11:50:27.906Z,75.90
2019-03-19T11:52:54.620Z,76.80
2019-03-19T11:55:21.457Z,76.10
2019-03-19T11:57:48.333Z,73.50
2019-03-19T12:00:42.854Z,71.60
2019-03-19T12:03:15.171Z,72.20
2019-03-19T12:05:37.965Z,74.50
2019-03-19T12:08:04.959Z,76.50
2019-03-19T12:10:31.612Z,75.90
2019-03-19T12:12:58.288Z,74.60
2019-03-19T12:15:25.082Z,75.50
2019-03-19T12:17:51.745Z,75.90
2019-03-19T12:20:20.621Z,72.70
2019-03-19T12:22:47.005Z,73.70
2019-03-19T12:25:13.636Z,70.80
2019-03-19T12:27:40.309Z,67.10
2019-03-19T12:30:21.736Z,67.30
2019-03-19T12:32:41.403Z,66.00
2019-03-19T12:35:09.234Z,69.20
2019-03-19T12:37:35.992Z,68.70
2019-03-19T12:40:05.981Z,66.20
2019-03-19T12:42:32.717Z,68.60
2019-03-19T12:44:59.416Z,69.20
2019-03-19T12:47:26.240Z,68.70
2019-03-19T12:49:52.873Z,70.40
2019-03-19T12:52:19.521Z,71.80
2019-03-19T12:54:46.305Z,72.70
2019-03-19T12:57:12.928Z,71.70
2019-03-19T12:59:39.704Z,71.50
2019-03-19T13:02:06.341Z,72.50
2019-03-19T13:04:33.155Z,74.30
2019-03-19T13:06:59.883Z,75.50
2019-03-19T13:09:26.705Z,73.80
2019-03-19T13:11:53.347Z,73.50
2019-03-19T13:14:20.049Z,72.80
2019-03-19T13:16:46.783Z,73.10
2019-03-19T13:19:13.557Z,72.50
2019-03-19T13:21:40.284Z,71.70
2019-03-19T13:24:06.922Z,71.10
2019-03-19T13:26:33.607Z,72.50
2019-03-19T13:29:00.239Z,70.00
2019-03-19T13:31:27.929Z,71.20
2019-03-19T13:33:54.614Z,64.60
2019-03-19T13:36:21.299Z,66.70
2019-03-19T13:38:48.070Z,66.80
2019-03-19T13:41:15.014Z,67.70
2019-03-19T13:43:41.736Z,73.80
2019-03-19T13:46:08.242Z,76.00
2019-03-19T13:48:34.908Z,75.70
2019-03-19T13:51:01.553Z,77.00
2019-03-19T13:53:28.218Z,78.00
2019-03-19T13:55:54.855Z,76.30
2019-03-19T13:58:21.565Z,76.30
2019-03-19T14:00:55.628Z,74.70
2019-03-19T14:03:16.920Z,75.00
2019-03-19T14:05:43.881Z,76.10
2019-03-19T14:08:10.778Z,74.00
2019-03-19T14:10:37.582Z,71.20
2019-03-19T14:13:04.513Z,68.30
2019-03-19T14:15:31.197Z,69.80
2019-03-19T14:17:57.863Z,69.80
2019-03-19T14:20:24.544Z,70.70
2019-03-19T14:22:51.337Z,70.20
2019-03-19T14:25:18.020Z,73.30
2019-03-19T14:27:44.750Z,73.50
2019-03-19T14:30:21.316Z,74.60
2019-03-19T14:32:47.973Z,72.80
2019-03-19T14:35:14.882Z,74.10
2019-03-19T14:37:41.784Z,72.70
2019-03-19T14:40:16.981Z,71.70
2019-03-19T14:42:43.735Z,71.00
2019-03-19T14:45:10.605Z,71.90
2019-03-19T14:47:37.306Z,69.60
2019-03-19T14:50:13.044Z,71.50
2019-03-19T14:52:39.773Z,72.40
2019-03-19T14:55:06.730Z,72.00
2019-03-19T14:57:33.539Z,71.40
2019-03-19T15:00:00.332Z,70.10
2019-03-19T15:02:27.139Z,68.50
2019-03-19T15:04:53.792Z,67.40
2019-03-19T15:07:20.472Z,69.10
2019-03-19T15:09:47.114Z,67.00
2019-03-19T15:12:13.779Z,66.10
2019-03-19T15:14:40.468Z,67.20
2019-03-19T15:17:07.316Z,64.80
2019-03-19T15:19:34.073Z,66.70
2019-03-19T15:22:00.752Z,65.10
2019-03-19T15:24:27.545Z,65.30
2019-03-19T15:26:54.240Z,65.10
2019-03-19T15:29:21.018Z,64.40
2019-03-19T15:31:47.851Z,66.70
2019-03-19T15:34:14.547Z,66.80
2019-03-19T15:36:41.183Z,68.80
2019-03-19T15:39:07.874Z,68.20
2019-03-19T15:41:34.514Z,68.80
2019-03-19T15:44:01.309Z,69.50
2019-03-19T15:46:28.007Z,70.20
2019-03-19T15:48:54.673Z,70.20
2019-03-19T15:51:21.329Z,70.30
2019-03-19T15:53:48.105Z,70.90
2019-03-19T15:56:14.848Z,71.10
2019-03-19T15:58:41.573Z,72.50
2019-03-19T16:01:08.248Z,70.10
2019-03-19T16:03:34.945Z,71.00
2019-03-19T16:06:01.618Z,69.80
2019-03-19T16:08:28.356Z,69.90
2019-03-19T16:10:55.174Z,69.50
2019-03-19T16:13:21.901Z,69.70
2019-03-19T16:15:48.911Z,70.20
2019-03-19T16:18:15.610Z,71.10
2019-03-19T16:20:42.310Z,72.00
2019-03-19T16:23:09.317Z,72.10
2019-03-19T16:25:36.142Z,71.50
2019-03-19T16:28:02.940Z,70.70
2019-03-19T16:30:29.548Z,72.50
2019-03-19T16:32:56.229Z,71.30
2019-03-19T16:35:22.965Z,72.10
2019-03-19T16:37:49.633Z,72.50
2019-03-19T16:40:17.530Z,72.00
2019-03-19T16:42:44.418Z,71.60
2019-03-19T16:45:11.185Z,70.10
2019-03-19T16:47:38.020Z,69.20
2019-03-19T16:50:13.464Z,69.90
2019-03-19T16:52:41.088Z,69.30
2019-03-19T16:55:11.409Z,69.90
2019-03-19T16:57:38.197Z,70.00
2019-03-19T17:00:16.357Z,70.50
2019-03-19T17:02:43.134Z,70.90
2019-03-19T17:05:10.927Z,70.70
2019-03-19T17:07:37.611Z,70.90
2019-03-19T17:10:13.825Z,70.80
2019-03-19T17:12:41.995Z,71.50
2019-03-19T17:15:11.601Z,71.70
2019-03-19T17:17:38.318Z,72.70
2019-03-19T17:20:08.359Z,71.50
2019-03-19T17:22:35.005Z,71.60
2019-03-19T17:25:01.692Z,72.30
2019-03-19T17:27:28.315Z,72.70
2019-03-19T17:29:55.099Z,73.30
2019-03-19T17:32:21.742Z,73.50
2019-03-19T17:34:48.525Z,74.20
2019-03-19T17:37:15.274Z,77.70
2019-03-19T17:39:41.975Z,80.20
2019-03-19T17:42:08.784Z,80.80
2019-03-19T17:44:35.508Z,80.20
2019-03-19T17:47:02.192Z,82.00
2019-03-19T17:49:28.944Z,82.00
2019-03-19T17:51:55.615Z,82.50
2019-03-19T17:54:22.341Z,82.60
2019-03-19T17:56:49.270Z,83.50
2019-03-19T17:59:15.933Z,84.20
2019-03-19T18:01:42.993Z,84.70
2019-03-19T18:04:09.768Z,85.30
2019-03-19T18:06:36.430Z,86.70
2019-03-19T18:09:05.581Z,87.90
2019-03-19T18:11:32.250Z,87.80
2019-03-19T18:13:59.051Z,87.50
2019-03-19T18:16:25.846Z,86.20
2019-03-19T18:18:52.576Z,85.90
2019-03-19T18:21:19.225Z,85.00
2019-03-19T18:23:45.940Z,85.00
2019-03-19T18:26:12.741Z,84.10
2019-03-19T18:28:39.431Z,85.20
2019-03-19T18:31:06.124Z,86.20
2019-03-19T18:33:41.593Z,85.80
2019-03-19T18:36:08.281Z,86.20
2019-03-19T18:38:34.952Z,87.40
2019-03-19T18:41:01.619Z,86.90
2019-03-19T18:43:28.269Z,87.40
2019-03-19T18:45:57.074Z,87.90
2019-03-19T18:48:23.383Z,88.70
2019-03-19T18:50:50.037Z,88.50
2019-03-19T18:53:16.799Z,88.30
2019-03-19T18:55:43.433Z,88.20
2019-03-19T18:58:10.161Z,89.00
2019-03-19T19:00:37.410Z,87.10
2019-03-19T19:03:04.056Z,88.10
2019-03-19T19:05:30.753Z,87.50
2019-03-19T19:07:57.424Z,87.40
2019-03-19T19:10:24.109Z,87.80
2019-03-19T19:12:50.963Z,88.10
2019-03-19T19:15:22.144Z,88.90
2019-03-19T19:17:48.926Z,89.20
2019-03-19T19:20:16.331Z,88.30
2019-03-19T19:22:43.083Z,88.50
2019-03-19T19:25:12.771Z,87.80
2019-03-19T19:27:39.423Z,86.50
2019-03-19T19:30:09.728Z,86.40
2019-03-19T19:32:36.471Z,88.90
2019-03-19T19:35:03.206Z,89.10
2019-03-19T19:37:29.881Z,88.40
2019-03-19T19:39:56.546Z,87.60
2019-03-19T19:42:23.226Z,89.50
2019-03-19T19:44:49.890Z,88.60
2019-03-19T19:47:16.660Z,88.00
2019-03-19T19:49:43.283Z,86.70
2019-03-19T19:52:09.949Z,87.10
2019-03-19T19:54:36.593Z,87.40
2019-03-19T19:57:03.369Z,88.00
2019-03-19T19:59:30.029Z,88.40
2019-03-19T20:01:56.732Z,87.40
2019-03-19T20:04:23.522Z,89.10
2019-03-19T20:06:50.370Z,88.60
2019-03-19T20:09:17.062Z,88.70
2019-03-19T20:11:43.710Z,89.10
2019-03-19T20:14:10.420Z,88.20
2019-03-19T20:16:37.109Z,88.20
2019-03-19T20:19:03.940Z,88.40
2019-03-19T20:21:30.701Z,88.80
2019-03-19T20:23:57.384Z,89.10
2019-03-19T20:26:24.001Z,90.00
2019-03-19T20:28:50.689Z,90.50
2019-03-19T20:31:17.451Z,90.50
2019-03-19T20:33:44.101Z,90.50
2019-03-19T20:36:10.853Z,90.90
2019-03-19T20:38:37.525Z,90.50
2019-03-19T20:41:04.253Z,90.40
2019-03-19T20:43:31.058Z,90.40
2019-03-19T20:45:57.701Z,90.80
2019-03-19T20:48:24.486Z,90.50
2019-03-19T20:50:51.280Z,90.30
2019-03-19T20:53:17.941Z,91.10
2019-03-19T20:55:44.716Z,92.30
2019-03-19T20:58:11.361Z,91.90
2019-03-19T21:00:38.025Z,91.30
2019-03-19T21:03:04.757Z,91.00
2019-03-19T21:05:31.429Z,90.90
2019-03-19T21:07:58.177Z,90.90
2019-03-19T21:10:25.077Z,90.50
2019-03-19T21:12:51.827Z,90.70
2019-03-19T21:15:29.528Z,90.90
2019-03-19T21:17:56.332Z,91.00
2019-03-19T21:20:23.027Z,91.00
2019-03-19T21:22:49.654Z,91.90
2019-03-19T21:25:16.450Z,92.40
2019-03-19T21:27:43.212Z,93.00
2019-03-19T21:30:18.186Z,91.80
2019-03-19T21:32:44.878Z,91.30
2019-03-19T21:35:11.524Z,91.10
2019-03-19T21:37:38.243Z,90.90
2019-03-19T21:40:12.372Z,91.30
2019-03-19T21:42:39.197Z,91.30
2019-03-19T21:45:08.859Z,92.00
2019-03-19T21:47:35.542Z,91.40
2019-03-19T21:50:02.632Z,91.30
2019-03-19T21:52:29.328Z,91.50
2019-03-19T21:54:56.021Z,91.40
2019-03-19T21:57:22.692Z,91.30
2019-03-19T21:59:49.381Z,92.70
2019-03-19T22:02:16.024Z,92.90
2019-03-19T22:04:42.681Z,92.20
2019-03-19T22:07:09.326Z,92.30
2019-03-19T22:09:36.017Z,92.60
2019-03-19T22:12:02.957Z,92.90
2019-03-19T22:14:29.807Z,92.10
2019-03-19T22:16:56.619Z,92.30
2019-03-19T22:19:23.277Z,92.40
2019-03-19T22:21:49.920Z,92.70
2019-03-19T22:24:16.696Z,92.80
2019-03-19T22:26:43.316Z,93.00
2019-03-19T22:29:09.953Z,94.40
2019-03-19T22:31:36.618Z,93.80
2019-03-19T22:34:13.480Z,93.40
2019-03-19T22:36:31.840Z,93.60
2019-03-19T22:38:58.630Z,94.10
2019-03-19T22:41:25.335Z,94.10
2019-03-19T22:43:51.974Z,93.50
2019-03-19T22:46:22.063Z,93.70
2019-03-19T22:48:47.101Z,93.60
2019-03-19T22:51:13.775Z,93.90
2019-03-19T22:53:40.413Z,93.90
2019-03-19T22:56:07.032Z,94.30
2019-03-19T22:58:33.696Z,93.70
2019-03-19T23:01:00.592Z,93.30
2019-03-19T23:03:27.259Z,93.10
2019-03-19T23:05:53.909Z,93.60
2019-03-19T23:08:20.533Z,93.70
2019-03-19T23:10:47.210Z,92.70
2019-03-19T23:13:13.876Z,92.30
2019-03-19T23:15:40.633Z,92.00
2019-03-19T23:18:07.300Z,92.00
2019-03-19T23:20:33.926Z,93.70
2019-03-19T23:23:00.753Z,93.90
2019-03-19T23:25:27.418Z,93.90
2019-03-19T23:27:54.115Z,93.20
2019-03-19T23:30:22.442Z,93.20
2019-03-19T23:32:49.179Z,93.70
2019-03-19T23:35:15.900Z,93.30
2019-03-19T23:37:42.633Z,93.10
2019-03-19T23:40:11.062Z,93.00
2019-03-19T23:42:37.728Z,93.00
2019-03-19T23:45:07.620Z,93.10
2019-03-19T23:47:34.280Z,92.90
2019-03-19T23:50:00.942Z,92.90
2019-03-19T23:52:27.588Z,93.90
2019-03-19T23:54:54.296Z,94.20
2019-03-19T23:57:20.925Z,93.40
2019-03-19T23:59:49.516Z,93.40
